Time;durP1;ratioP1;P1;durP2;ratioP2;P2;SDS_P1;SDS_P2;PMS_P1;PMS_P2;Temp;Humidity;BMP_temperature;BMP_pressure;BME280_temperature;BME280_humidity;BME280_pressure;Samples;Min_cycle;Max_cycle;Signal;HPM_P1;HPM_P2
2022/12/04 00:01:05;;;;;;;30.35;15.60;;;;;;;5.15;70.21;100157.03;5023892;28;20427;-74
2022/12/04 00:03:31;;;;;;;27.02;13.68;;;;;;;5.11;70.09;100147.75;5021713;28;20380;-74
2022/12/04 00:06:16;;;;;;;31.17;15.38;;;;;;;5.14;70.09;100150.84;5025723;28;20762;-74
2022/12/04 00:08:43;;;;;;;25.88;14.00;;;;;;;5.17;70.13;100149.59;5032529;28;20964;-74
2022/12/04 00:11:10;;;;;;;27.08;13.80;;;;;;;5.16;70.20;100148.78;5023806;28;20537;-73
2022/12/04 00:13:36;;;;;;;27.33;14.38;;;;;;;5.20;70.37;100141.91;5003383;28;20455;-74
2022/12/04 00:16:11;;;;;;;26.85;14.57;;;;;;;5.22;69.77;100147.91;5030936;28;20387;-74
2022/12/04 00:18:37;;;;;;;27.63;14.35;;;;;;;5.22;69.92;100161.34;5031243;28;20857;-74
2022/12/04 00:21:09;;;;;;;26.88;13.52;;;;;;;5.21;69.94;100154.31;5030246;28;20529;-74
2022/12/04 00:23:36;;;;;;;29.52;15.07;;;;;;;5.25;69.79;100152.00;5002525;28;20480;-74
2022/12/04 00:26:10;;;;;;;27.67;14.30;;;;;;;5.27;69.68;100152.59;5032330;28;20422;-74
2022/12/04 00:28:36;;;;;;;27.77;14.07;;;;;;;5.29;69.63;100149.72;5032136;28;20398;-74
2022/12/04 00:31:06;;;;;;;29.77;13.60;;;;;;;5.31;69.97;100145.75;5013681;28;20418;-74
2022/12/04 00:33:32;;;;;;;27.33;14.43;;;;;;;5.30;69.72;100121.81;5004565;28;20456;-74
2022/12/04 00:35:59;;;;;;;28.02;15.23;;;;;;;5.28;69.63;100129.25;5024120;28;20821;-74
2022/12/04 00:38:25;;;;;;;30.40;15.02;;;;;;;5.24;69.70;100132.38;5015386;28;20492;-74
2022/12/04 00:40:51;;;;;;;26.97;14.00;;;;;;;5.26;69.79;100131.34;5012534;28;20451;-74
2022/12/04 00:43:17;;;;;;;28.15;14.90;;;;;;;5.29;69.89;100133.59;5008338;28;20424;-74
2022/12/04 00:45:42;;;;;;;29.98;16.10;;;;;;;5.27;69.51;100123.06;5012256;28;20411;-74
2022/12/04 00:48:08;;;;;;;28.63;15.20;;;;;;;5.24;69.77;100118.94;5018283;28;20486;-74
2022/12/04 00:50:34;;;;;;;33.08;15.85;;;;;;;5.22;69.98;100121.03;5018010;28;20751;-74
2022/12/04 00:52:59;;;;;;;28.70;14.63;;;;;;;5.24;69.53;100126.19;5014479;28;20868;-74
2022/12/04 00:55:24;;;;;;;27.20;13.60;;;;;;;5.24;69.41;100136.94;5011950;28;20408;-74
2022/12/04 00:57:49;;;;;;;28.33;14.43;;;;;;;5.26;69.65;100137.56;5006758;28;20408;-74
2022/12/04 01:00:15;;;;;;;29.27;15.70;;;;;;;5.27;69.48;100130.31;5010582;28;20404;-74
2022/12/04 01:02:40;;;;;;;28.47;13.87;;;;;;;5.24;69.64;100132.38;5005132;28;20778;-74
2022/12/04 01:05:06;;;;;;;29.67;14.43;;;;;;;5.22;70.17;100134.47;5007466;28;20509;-74
2022/12/04 01:07:32;;;;;;;28.30;15.00;;;;;;;5.23;69.64;100132.63;5010682;28;20440;-74
2022/12/04 01:09:57;;;;;;;27.60;15.00;;;;;;;5.23;70.05;100141.50;5015008;28;20962;-74
2022/12/04 01:12:22;;;;;;;29.37;14.93;;;;;;;5.19;69.81;100137.59;4997830;28;20493;-74
2022/12/04 01:14:47;;;;;;;39.17;15.83;;;;;;;5.13;70.47;100146.53;5015851;28;20400;-74
2022/12/04 01:17:13;;;;;;;29.13;14.80;;;;;;;5.14;70.49;100147.31;5020104;28;20433;-74
2022/12/04 01:19:38;;;;;;;30.73;15.07;;;;;;;5.21;70.24;100148.09;5018401;28;20408;-73
2022/12/04 01:22:04;;;;;;;29.53;14.93;;;;;;;5.25;70.15;100141.28;5003568;28;20418;-74
2022/12/04 01:24:29;;;;;;;29.03;14.67;;;;;;;5.28;70.35;100142.69;5014712;28;20413;-74
2022/12/04 01:26:54;;;;;;;28.47;14.87;;;;;;;5.23;70.41;100133.44;5005626;28;20401;-74
2022/12/04 01:29:20;;;;;;;30.77;15.97;;;;;;;5.25;70.28;100133.22;5005867;28;20774;-74
2022/12/04 01:31:45;;;;;;;29.63;14.93;;;;;;;5.28;70.24;100131.94;5015305;28;20403;-74
2022/12/04 01:34:10;;;;;;;31.60;15.50;;;;;;;5.24;70.11;100135.06;5011592;28;21272;-74
2022/12/04 01:36:35;;;;;;;27.03;13.93;;;;;;;5.26;70.35;100136.72;5006752;28;20442;-74
2022/12/04 01:39:01;;;;;;;30.02;14.77;;;;;;;5.26;70.59;100140.25;5014091;28;20525;-74
2022/12/04 01:41:28;;;;;;;31.10;15.23;;;;;;;5.29;70.01;100134.44;5009432;28;20993;-74
2022/12/04 01:44:10;;;;;;;30.65;15.60;;;;;;;5.32;70.03;100130.47;5015192;28;20734;-74
2022/12/04 01:46:36;;;;;;;31.52;16.27;;;;;;;5.32;69.98;100142.03;5007624;28;20485;-74
2022/12/04 01:49:03;;;;;;;30.38;15.50;;;;;;;5.29;70.51;100139.81;5019288;28;20410;-74
2022/12/04 01:51:36;;;;;;;30.88;14.55;;;;;;;5.34;69.92;100145.31;5009791;28;20436;-74
2022/12/04 01:54:07;;;;;;;33.57;15.87;;;;;;;5.36;70.40;100140.56;5018363;28;20488;-74
2022/12/04 01:56:48;;;;;;;29.35;15.55;;;;;;;5.38;70.23;100130.41;5006957;28;20489;-74
2022/12/04 01:59:18;;;;;;;33.65;15.85;;;;;;;5.35;70.53;100127.34;5003559;28;20884;-74
2022/12/04 02:01:52;;;;;;;29.13;16.55;;;;;;;5.36;69.89;100126.31;5013590;28;20898;-73
2022/12/04 02:04:18;;;;;;;29.95;15.30;;;;;;;5.39;70.05;100125.88;5002987;28;20414;-74
2022/12/04 02:06:43;;;;;;;30.77;16.27;;;;;;;5.40;70.06;100122.94;5013353;28;20400;-73
2022/12/04 02:09:09;;;;;;;31.50;15.50;;;;;;;5.40;70.17;100120.25;5007527;28;20394;-74
2022/12/04 02:11:54;;;;;;;30.77;16.27;;;;;;;5.39;70.28;100118.63;5009507;28;20436;-74
2022/12/04 02:14:29;;;;;;;30.33;15.68;;;;;;;5.39;70.38;100120.50;5004421;28;20446;-74
2022/12/04 02:17:32;;;;;;;30.77;15.50;;;;;;;5.42;70.59;100128.13;5008116;28;20408;-74
2022/12/04 02:20:10;;;;;;;28.55;14.60;;;;;;;5.37;70.37;100122.59;5020055;28;20403;-74
2022/12/04 02:22:57;;;;;;;29.30;15.02;;;;;;;5.38;70.64;100125.03;5015529;28;20450;-74
2022/12/04 02:25:34;;;;;;;25.95;14.65;;;;;;;5.35;70.92;100130.03;5008264;28;20407;-74
2022/12/04 02:28:21;;;;;;;28.63;15.27;;;;;;;5.36;70.76;100129.81;5004380;28;20432;-74
2022/12/04 02:30:49;;;;;;;29.70;15.63;;;;;;;5.35;70.76;100125.47;5006800;28;20450;-74
2022/12/04 02:33:25;;;;;;;30.90;15.40;;;;;;;5.38;71.02;100119.66;5010409;28;20837;-74
2022/12/04 02:35:59;;;;;;;26.73;14.10;;;;;;;5.38;70.75;100119.66;5010037;28;20915;-74
2022/12/04 02:38:32;;;;;;;28.27;15.43;;;;;;;5.38;70.47;100117.00;5013363;28;20460;-74
2022/12/04 02:41:22;;;;;;;26.40;14.07;;;;;;;5.39;70.60;100117.81;5005210;28;20497;-74
2022/12/04 02:43:55;;;;;;;25.37;14.40;;;;;;;5.39;70.78;100129.38;5017432;28;20443;-74
2022/12/04 02:46:26;;;;;;;24.63;13.73;;;;;;;5.41;70.19;100123.78;5004349;28;20418;-75
2022/12/04 02:48:56;;;;;;;26.17;14.23;;;;;;;5.43;70.87;100122.53;5012994;28;20401;-75
2022/12/04 02:51:26;;;;;;;25.15;13.95;;;;;;;5.42;70.62;100120.06;5013202;28;20408;-75
2022/12/04 02:54:04;;;;;;;27.33;14.73;;;;;;;5.38;70.67;100114.28;5007563;28;20419;-75
2022/12/04 02:56:33;;;;;;;28.73;14.97;;;;;;;5.39;70.82;100115.94;5004741;28;20404;-75
2022/12/04 02:59:08;;;;;;;25.60;14.23;;;;;;;5.38;70.68;100114.28;5011074;28;20838;-75
2022/12/04 03:01:38;;;;;;;25.38;13.77;;;;;;;5.39;70.56;100107.88;4998741;28;20823;-75
2022/12/04 03:04:18;;;;;;;27.52;13.63;;;;;;;5.41;70.43;100107.66;5001802;28;20399;-74
2022/12/04 03:06:49;;;;;;;23.38;13.48;;;;;;;5.39;70.41;100102.53;4999820;28;20441;-76
2022/12/04 03:09:20;;;;;;;24.40;14.40;;;;;;;5.39;70.59;100107.88;5009258;28;20758;-75
2022/12/04 03:11:55;;;;;;;28.58;14.70;;;;;;;5.41;70.46;100104.97;5014165;28;20436;-76
2022/12/04 03:14:32;;;;;;;25.73;13.33;;;;;;;5.39;70.45;100097.16;5009117;28;20406;-75
2022/12/04 03:17:02;;;;;;;30.65;14.55;;;;;;;5.39;70.36;100093.63;5003314;28;20505;-75
2022/12/04 03:19:38;;;;;;;23.38;12.93;;;;;;;5.38;70.38;100089.28;5016980;28;20798;-75
2022/12/04 03:22:08;;;;;;;23.63;12.63;;;;;;;5.35;70.59;100098.63;5018265;28;20424;-75
2022/12/04 03:24:39;;;;;;;26.05;13.68;;;;;;;5.38;70.43;100097.34;5019162;28;20405;-75
2022/12/04 03:27:35;;;;;;;22.95;13.02;;;;;;;5.40;70.15;100088.00;5000414;28;20447;-75
2022/12/04 03:30:07;;;;;;;23.17;12.88;;;;;;;5.38;70.34;100092.81;5009308;28;20431;-75
2022/12/04 03:32:46;;;;;;;22.85;12.23;;;;;;;5.36;70.22;100099.44;5015174;28;20467;-75
2022/12/04 03:35:17;;;;;;;22.80;12.25;;;;;;;5.35;70.13;100093.25;5001038;28;20478;-76
2022/12/04 03:38:10;;;;;;;20.90;12.15;;;;;;;5.36;70.38;100092.22;5006080;28;20529;-75
2022/12/04 03:40:53;;;;;;;22.40;12.68;;;;;;;5.36;70.19;100088.69;5019395;28;20897;-75
2022/12/04 03:43:45;;;;;;;24.02;12.77;;;;;;;5.37;70.21;100085.78;5008382;28;20425;-75
2022/12/04 03:46:16;;;;;;;21.88;11.95;;;;;;;5.37;70.29;100080.41;5010700;28;20767;-74
2022/12/04 03:49:11;;;;;;;20.98;12.40;;;;;;;5.32;69.82;100074.06;5022376;28;20399;-75
2022/12/04 03:51:45;;;;;;;23.60;12.67;;;;;;;5.34;69.82;100074.63;5015161;28;20551;-75
2022/12/04 03:54:17;;;;;;;21.75;11.80;;;;;;;5.35;70.07;100071.75;5025989;28;20423;-75
2022/12/04 03:56:52;;;;;;;19.98;11.85;;;;;;;5.34;69.98;100078.16;5010171;28;20471;-75
2022/12/04 03:59:23;;;;;;;24.02;12.20;;;;;;;5.36;70.20;100081.47;5013181;28;20400;-75
2022/12/04 04:01:50;;;;;;;21.25;11.48;;;;;;;5.38;69.78;100079.38;5012884;28;20456;-75
2022/12/04 04:04:21;;;;;;;22.35;12.23;;;;;;;5.40;70.06;100082.63;5001747;28;20405;-75
2022/12/04 04:06:55;;;;;;;19.90;11.70;;;;;;;5.34;69.75;100075.47;5009873;28;20500;-75
2022/12/04 04:09:24;;;;;;;21.23;11.90;;;;;;;5.33;70.17;100084.59;5015776;28;20401;-75
2022/12/04 04:12:17;;;;;;;18.65;11.35;;;;;;;5.35;70.03;100081.66;5011966;28;20453;-75
2022/12/04 04:24:13;;;;;;;28.48;12.23;;;;;;;5.35;70.23;100073.59;5010399;28;20943;-74
2022/12/04 04:26:14;;;;;;;22.42;12.65;;;;;;;5.35;70.21;100078.97;4999098;28;20795;-75
2022/12/04 04:28:41;;;;;;;21.73;13.02;;;;;;;5.36;69.97;100089.53;5005174;28;20761;-74
2022/12/04 04:31:23;;;;;;;21.63;12.27;;;;;;;5.35;69.94;100089.72;5008564;28;20393;-74
2022/12/04 04:33:59;;;;;;;21.70;11.95;;;;;;;5.36;69.67;100091.38;5012508;28;20426;-74
2022/12/04 04:36:39;;;;;;;25.33;12.93;;;;;;;5.37;69.80;100093.84;5005165;28;20409;-74
2022/12/04 04:39:16;;;;;;;20.52;11.90;;;;;;;5.38;69.91;100090.13;5007227;28;20408;-75
2022/12/04 04:41:44;;;;;;;22.30;12.87;;;;;;;5.37;70.02;100091.16;5005063;28;20423;-74
2022/12/04 04:44:27;;;;;;;23.02;13.20;;;;;;;5.37;69.86;100079.59;5015597;28;20408;-75
2022/12/04 04:46:59;;;;;;;20.60;11.90;;;;;;;5.37;69.81;100082.28;5006236;28;20422;-74
2022/12/04 04:49:29;;;;;;;19.20;11.75;;;;;;;5.39;69.52;100074.81;5020125;28;20427;-74
2022/12/04 04:51:56;;;;;;;20.90;11.85;;;;;;;5.40;70.11;100082.63;5020421;28;20395;-74
2022/12/04 04:54:22;;;;;;;18.73;11.98;;;;;;;5.42;70.20;100085.94;5017365;28;20722;-74
2022/12/04 04:56:48;;;;;;;22.33;12.50;;;;;;;5.42;69.96;100087.81;4997972;28;21016;-74
2022/12/04 04:59:13;;;;;;;21.83;12.17;;;;;;;5.42;69.86;100085.13;5009518;28;20416;-74
2022/12/04 05:01:42;;;;;;;21.37;12.03;;;;;;;5.40;69.82;100092.59;5006466;28;20424;-74
2022/12/04 05:04:07;;;;;;;19.35;11.77;;;;;;;5.41;69.68;100094.22;5004963;28;20434;-75
2022/12/04 05:06:33;;;;;;;20.40;11.67;;;;;;;5.40;69.70;100098.75;5004729;28;20458;-74
2022/12/04 05:08:59;;;;;;;21.90;12.27;;;;;;;5.37;69.76;100103.78;5008472;28;20405;-74
2022/12/04 05:11:24;;;;;;;18.03;11.40;;;;;;;5.36;70.04;100100.28;5012448;28;20479;-74
2022/12/04 05:13:50;;;;;;;20.67;11.80;;;;;;;5.39;69.78;100112.44;5013293;28;20757;-74
2022/12/04 05:16:15;;;;;;;20.43;11.87;;;;;;;5.42;69.57;100106.63;5004423;28;20406;-74
2022/12/04 05:19:52;;;;;;;18.15;11.35;;;;;;;5.42;69.95;100109.31;5014847;28;20400;-74
2022/12/04 05:21:30;;;;;;;19.35;11.80;;;;;;;5.42;69.67;100099.38;5015308;28;20473;-75
2022/12/04 05:23:55;;;;;;;19.50;11.27;;;;;;;5.41;69.62;100105.78;5008905;28;20403;-75
2022/12/04 05:26:21;;;;;;;17.80;11.13;;;;;;;5.41;69.87;100104.97;5008809;28;20508;-74
2022/12/04 05:28:46;;;;;;;18.73;10.82;;;;;;;5.39;69.84;100105.19;5019789;28;20811;-74
2022/12/04 05:31:11;;;;;;;19.07;11.43;;;;;;;5.40;70.10;100114.88;5019992;28;20403;-75
2022/12/04 05:33:37;;;;;;;18.93;11.37;;;;;;;5.29;70.32;100102.19;5011216;28;20412;-74
2022/12/04 05:36:05;;;;;;;18.97;11.07;;;;;;;5.33;70.59;100099.88;5009093;28;20418;-74
2022/12/04 05:38:31;;;;;;;21.02;11.23;;;;;;;5.37;69.79;100104.59;5018037;28;20828;-74
2022/12/04 05:40:57;;;;;;;18.23;10.07;;;;;;;5.36;70.05;100110.19;4998976;28;20501;-74
2022/12/04 05:43:22;;;;;;;22.05;12.10;;;;;;;5.37;70.27;100112.66;5009289;28;20409;-75
2022/12/04 05:45:48;;;;;;;19.47;11.50;;;;;;;5.34;69.99;100114.94;5007803;28;20433;-74
2022/12/04 05:48:14;;;;;;;21.37;12.67;;;;;;;5.37;70.19;100115.34;5011554;28;20799;-74
2022/12/04 05:50:39;;;;;;;19.52;11.93;;;;;;;5.39;69.88;100107.88;5011940;28;20404;-74
2022/12/04 05:53:04;;;;;;;21.70;12.10;;;;;;;5.38;70.03;100106.25;5012475;28;20501;-74
2022/12/04 05:55:30;;;;;;;20.40;11.80;;;;;;;5.39;70.34;100109.75;5004051;28;20421;-74
2022/12/04 05:57:56;;;;;;;18.43;11.53;;;;;;;5.39;70.34;100104.38;5008845;28;20421;-74
2022/12/04 06:00:21;;;;;;;20.65;11.70;;;;;;;5.43;70.13;100105.59;5010379;28;20406;-74
2022/12/04 06:02:46;;;;;;;25.10;11.50;;;;;;;5.43;70.09;100101.03;5014835;28;20424;-74
2022/12/04 06:05:12;;;;;;;18.83;11.50;;;;;;;5.43;70.15;100100.22;5013393;28;20447;-74
2022/12/04 06:07:37;;;;;;;18.20;11.25;;;;;;;5.45;69.91;100101.63;5015532;28;20411;-74
2022/12/04 06:10:04;;;;;;;19.57;11.83;;;;;;;5.48;69.91;100095.00;5015206;28;20812;-74
2022/12/04 06:12:29;;;;;;;21.35;11.93;;;;;;;5.47;69.68;100099.53;5014938;28;20456;-74
2022/12/04 06:14:55;;;;;;;19.60;11.23;;;;;;;5.47;69.85;100106.78;5004689;28;20412;-75
2022/12/04 06:17:20;;;;;;;18.97;11.30;;;;;;;5.46;69.71;100103.28;5012602;28;20763;-74
2022/12/04 06:19:45;;;;;;;20.30;11.60;;;;;;;5.45;69.81;100101.63;5002651;28;20401;-74
2022/12/04 06:22:10;;;;;;;18.40;10.67;;;;;;;5.44;69.80;100099.97;5005396;28;20540;-74
2022/12/04 06:24:36;;;;;;;19.63;11.80;;;;;;;5.46;70.10;100094.41;4990997;28;20413;-74
2022/12/04 06:27:01;;;;;;;17.73;11.10;;;;;;;5.47;69.68;100096.84;4988575;28;20421;-74
2022/12/04 06:29:26;;;;;;;18.03;10.87;;;;;;;5.45;70.00;100098.94;4989756;28;20425;-73
2022/12/04 06:31:52;;;;;;;17.70;11.00;;;;;;;5.46;70.23;100103.28;5003633;28;20542;-74
2022/12/04 06:34:17;;;;;;;19.90;11.83;;;;;;;5.47;70.38;100099.53;5006155;28;20918;-74
2022/12/04 06:36:42;;;;;;;21.03;11.67;;;;;;;5.49;70.38;100102.03;5004984;28;20405;-74
2022/12/04 06:39:09;;;;;;;18.67;11.80;;;;;;;5.47;70.56;100106.78;4996958;28;20484;-74
2022/12/04 06:41:34;;;;;;;21.20;11.63;;;;;;;5.45;70.29;100114.25;4998066;28;20454;-74
2022/12/04 06:43:59;;;;;;;19.98;11.45;;;;;;;5.46;70.25;100118.59;4990087;28;20814;-76
2022/12/04 06:46:27;;;;;;;19.67;11.53;;;;;;;5.46;70.62;100111.34;4997862;28;20435;-75
2022/12/04 06:48:54;;;;;;;19.02;11.15;;;;;;;5.49;70.56;100115.44;4994567;28;20523;-76
2022/12/04 06:51:23;;;;;;;19.38;10.98;;;;;;;5.50;70.13;100109.84;4994526;28;20497;-76
2022/12/04 06:53:48;;;;;;;21.95;12.23;;;;;;;5.48;70.48;100109.25;4994156;28;20416;-76
2022/12/04 06:56:17;;;;;;;22.50;12.02;;;;;;;5.49;70.43;100110.91;4995423;28;20402;-76
2022/12/04 06:58:46;;;;;;;22.23;11.57;;;;;;;5.49;70.31;100110.91;4994271;28;20408;-74
2022/12/04 07:01:16;;;;;;;23.52;12.27;;;;;;;5.47;70.34;100114.84;4995499;28;20417;-74
2022/12/04 07:03:42;;;;;;;20.77;11.40;;;;;;;5.44;70.35;100116.09;4998223;28;20541;-75
2022/12/04 07:06:24;;;;;;;20.60;11.88;;;;;;;5.48;70.55;100111.13;4994072;28;20409;-76
2022/12/04 07:08:56;;;;;;;23.00;12.50;;;;;;;5.48;70.67;100114.63;4994169;28;20465;-76
2022/12/04 07:11:22;;;;;;;21.60;11.18;;;;;;;5.48;70.26;100117.31;4993775;28;20406;-75
2022/12/04 07:13:48;;;;;;;18.60;10.67;;;;;;;5.49;70.41;100113.59;4992524;28;20412;-75
2022/12/04 07:16:17;;;;;;;20.10;11.18;;;;;;;5.49;70.42;100118.97;4994467;28;20752;-75
2022/12/04 07:18:42;;;;;;;21.15;12.48;;;;;;;5.52;70.51;100113.16;4996102;28;20874;-76
2022/12/04 07:21:11;;;;;;;20.48;11.80;;;;;;;5.52;70.57;100107.78;4994580;28;20409;-76
2022/12/04 07:23:36;;;;;;;18.45;11.85;;;;;;;5.51;70.75;100103.44;5002708;28;20456;-76
2022/12/04 07:26:11;;;;;;;20.00;10.90;;;;;;;5.53;70.22;100113.97;4993299;28;20403;-75
2022/12/04 07:28:36;;;;;;;21.70;12.57;;;;;;;5.53;70.27;100116.66;4993426;28;20406;-76
2022/12/04 07:31:06;;;;;;;20.57;11.10;;;;;;;5.47;70.54;100112.97;4990921;28;20951;-76
2022/12/04 07:33:32;;;;;;;31.55;13.90;;;;;;;5.48;70.88;100109.25;4994255;28;20412;-76
2022/12/04 07:35:59;;;;;;;25.58;12.73;;;;;;;5.49;71.06;100110.09;4993345;28;20471;-75
2022/12/04 07:38:25;;;;;;;20.95;11.75;;;;;;;5.48;71.02;100106.56;4994398;28;20458;-75
2022/12/04 07:40:55;;;;;;;23.58;13.25;;;;;;;5.48;70.76;100117.31;4993085;28;20421;-75
2022/12/04 07:43:20;;;;;;;24.15;13.63;;;;;;;5.50;70.63;100114.41;4993580;28;20432;-76
2022/12/04 07:45:45;;;;;;;23.80;13.77;;;;;;;5.49;70.39;100115.44;4991087;28;20410;-75
2022/12/04 07:48:11;;;;;;;31.27;13.47;;;;;;;5.47;70.66;100118.34;4999341;28;20409;-75
2022/12/04 07:50:36;;;;;;;20.43;12.57;;;;;;;5.48;70.82;100116.50;5006406;28;20409;-75
2022/12/04 07:53:01;;;;;;;23.57;12.33;;;;;;;5.48;70.76;100122.69;5001327;28;20762;-75
2022/12/04 07:55:27;;;;;;;26.17;15.40;;;;;;;5.49;70.89;100120.81;4996443;28;20403;-74
2022/12/04 07:57:52;;;;;;;29.97;15.83;;;;;;;5.51;70.44;100118.72;4994786;28;20480;-76
2022/12/04 08:00:18;;;;;;;23.07;12.83;;;;;;;5.49;70.77;100121.66;4992934;28;20426;-76
2022/12/04 08:02:43;;;;;;;23.50;12.67;;;;;;;5.48;70.96;100120.00;4994463;28;20432;-75
2022/12/04 08:05:08;;;;;;;31.33;15.20;;;;;;;5.51;70.91;100129.47;5011197;28;20401;-76
2022/12/04 08:07:34;;;;;;;25.00;14.43;;;;;;;5.51;71.07;100121.41;4992191;28;20409;-76
2022/12/04 08:09:59;;;;;;;28.33;14.93;;;;;;;5.51;70.74;100113.34;4993350;28;20952;-77
2022/12/04 08:12:24;;;;;;;25.57;14.00;;;;;;;5.55;70.65;100111.88;4991319;28;20508;-77
2022/12/04 08:14:50;;;;;;;23.70;13.13;;;;;;;5.56;70.91;100113.53;4993085;28;20759;-77
2022/12/04 08:17:15;;;;;;;34.67;16.07;;;;;;;5.53;71.16;100109.41;4993708;28;20972;-76
2022/12/04 08:19:40;;;;;;;24.40;13.17;;;;;;;5.57;70.55;100113.28;4993000;28;20397;-76
2022/12/04 08:22:06;;;;;;;21.33;12.57;;;;;;;5.59;71.03;100115.78;4993487;28;20422;-77
2022/12/04 08:24:31;;;;;;;20.90;11.87;;;;;;;5.58;71.04;100119.50;4994053;28;20422;-79
2022/12/04 08:26:57;;;;;;;22.53;12.17;;;;;;;5.58;71.38;100122.19;5007707;28;20396;-79
2022/12/04 08:29:23;;;;;;;21.40;12.80;;;;;;;5.59;70.85;100124.66;5018105;28;20412;-78
2022/12/04 08:31:48;;;;;;;21.87;12.83;;;;;;;5.59;71.27;100119.28;4992651;28;20879;-79
2022/12/04 08:34:14;;;;;;;22.10;12.87;;;;;;;5.63;70.87;100117.00;4994476;28;20409;-77
2022/12/04 08:36:40;;;;;;;23.33;13.00;;;;;;;5.63;71.37;100106.25;4995020;28;20443;-79
2022/12/04 08:39:05;;;;;;;24.38;14.13;;;;;;;5.64;70.87;100110.53;4992256;28;20493;-79
2022/12/04 08:41:30;;;;;;;22.27;11.93;;;;;;;5.63;71.45;100115.09;4995296;28;21061;-78
2022/12/04 08:43:56;;;;;;;21.10;12.10;;;;;;;5.61;71.61;100111.81;4994231;28;20920;-79
2022/12/04 08:46:23;;;;;;;20.50;11.68;;;;;;;5.63;71.50;100117.00;4991917;28;20418;-79
2022/12/04 08:48:48;;;;;;;22.92;12.23;;;;;;;5.65;71.48;100110.34;5009941;28;20898;-79
2022/12/04 08:51:16;;;;;;;20.33;12.50;;;;;;;5.67;71.20;100110.94;4995354;28;20406;-78
2022/12/04 08:53:42;;;;;;;25.48;13.25;;;;;;;5.66;71.16;100114.66;4991433;28;20414;-78
2022/12/04 08:56:07;;;;;;;22.45;11.63;;;;;;;5.67;71.24;100110.94;4994030;28;20422;-78
2022/12/04 08:58:33;;;;;;;24.25;12.60;;;;;;;5.62;71.54;100126.09;4993162;28;20441;-78
2022/12/04 09:01:11;;;;;;;21.90;11.70;;;;;;;5.65;71.49;100120.28;4994680;28;20419;-78
2022/12/04 09:03:37;;;;;;;23.10;12.02;;;;;;;5.65;71.14;100125.66;4994496;28;20426;-79
2022/12/04 09:06:04;;;;;;;20.15;11.60;;;;;;;5.66;71.73;100140.75;4987526;28;20966;-79
2022/12/04 09:08:31;;;;;;;20.65;12.52;;;;;;;5.49;71.80;100139.66;4987750;28;20417;-78
2022/12/04 09:11:09;;;;;;;27.33;15.75;;;;;;;5.55;72.07;100141.44;4989200;28;21467;-80
2022/12/04 09:13:35;;;;;;;23.02;13.68;;;;;;;5.62;71.91;100142.22;4984284;28;20437;-77
2022/12/04 09:16:04;;;;;;;21.90;11.85;;;;;;;5.67;71.77;100150.44;4986909;28;20422;-78
2022/12/04 09:18:30;;;;;;;25.10;13.93;;;;;;;5.68;71.63;100144.03;4985802;28;20410;-80
2022/12/04 09:20:57;;;;;;;31.45;19.55;;;;;;;5.71;71.41;100147.09;4986654;28;20421;-79
2022/12/04 09:23:24;;;;;;;20.42;12.30;;;;;;;5.71;71.39;100144.41;4989300;28;20422;-77
2022/12/04 09:25:49;;;;;;;26.38;13.15;;;;;;;5.72;71.59;100143.38;4990737;28;20421;-79
2022/12/04 09:28:14;;;;;;;22.30;12.77;;;;;;;5.69;71.63;100135.75;4985817;28;21725;-79
2022/12/04 09:30:39;;;;;;;24.48;12.50;;;;;;;5.70;71.86;100136.53;4987587;28;21073;-78
2022/12/04 09:33:05;;;;;;;24.47;12.80;;;;;;;5.71;71.73;100130.97;4990862;28;20437;-78
2022/12/04 09:35:30;;;;;;;20.43;11.77;;;;;;;5.72;71.54;100135.31;4990332;28;20422;-79
2022/12/04 09:37:56;;;;;;;24.20;13.30;;;;;;;5.75;71.79;100137.53;4986757;28;20950;-78
2022/12/04 09:40:56;;;;;;;22.40;13.33;;;;;;;5.76;71.91;100128.41;4986069;28;20416;-79
2022/12/04 09:43:38;;;;;;;23.53;12.20;;;;;;;5.80;71.59;100133.34;4997496;28;20496;-79
2022/12/04 09:46:13;;;;;;;25.27;12.60;;;;;;;5.80;71.03;100126.09;4990609;28;20526;-79
2022/12/04 09:48:42;;;;;;;26.48;13.25;;;;;;;5.81;71.52;100122.38;4990208;28;20418;-79
2022/12/04 09:51:17;;;;;;;26.17;13.60;;;;;;;5.84;71.61;100123.81;4991966;28;20418;-79
2022/12/04 09:53:47;;;;;;;28.80;15.77;;;;;;;5.87;71.19;100115.31;4990511;28;22231;-79
2022/12/04 09:56:18;;;;;;;21.45;12.00;;;;;;;5.89;71.48;100114.06;4989073;28;20418;-78
2022/12/04 09:58:59;;;;;;;21.80;12.23;;;;;;;5.87;71.60;100110.75;4992983;28;20543;-79
2022/12/04 10:01:44;;;;;;;24.17;12.93;;;;;;;5.87;71.53;100109.94;4992692;28;20496;-78
2022/12/04 10:04:10;;;;;;;23.27;12.95;;;;;;;5.85;71.75;100109.31;5005105;28;20480;-79
2022/12/04 10:07:06;;;;;;;26.87;13.50;;;;;;;5.85;71.31;100104.75;4998093;28;20497;-78
2022/12/04 10:09:58;;;;;;;22.77;13.30;;;;;;;5.87;71.43;100093.81;4990675;28;20414;-78
2022/12/04 10:12:42;;;;;;;23.27;13.43;;;;;;;5.88;71.34;100104.34;4991771;28;20423;-78
2022/12/04 10:15:25;;;;;;;27.45;14.82;;;;;;;5.88;71.00;100098.16;4990499;28;22529;-78
2022/12/04 10:18:08;;;;;;;23.67;12.97;;;;;;;5.80;71.68;100087.63;4990918;28;20507;-78
2022/12/04 10:20:47;;;;;;;22.67;13.30;;;;;;;5.80;71.76;100087.63;4989610;28;20755;-78
2022/12/04 10:23:26;;;;;;;24.55;12.98;;;;;;;5.83;71.78;100084.53;5008423;28;20416;-79
2022/12/04 10:25:53;;;;;;;25.67;14.18;;;;;;;5.82;72.03;100075.63;4997939;28;20416;-78
2022/12/04 10:28:40;;;;;;;26.30;13.93;;;;;;;5.83;72.20;100077.25;5000201;28;20762;-79
2022/12/04 10:31:11;;;;;;;26.73;13.55;;;;;;;5.83;71.76;100074.56;4997660;28;20971;-79
2022/12/04 10:34:00;;;;;;;25.83;13.67;;;;;;;5.86;71.93;100076.84;5003385;28;20832;-79
2022/12/04 10:36:31;;;;;;;26.07;13.63;;;;;;;5.86;71.50;100079.53;4997672;28;20468;-78
2022/12/04 10:39:32;;;;;;;25.58;14.13;;;;;;;5.85;72.29;100085.13;4997168;28;20414;-80
2022/12/04 10:42:05;;;;;;;25.08;13.18;;;;;;;5.82;72.04;100081.00;4998928;28;20422;-79
2022/12/04 10:44:30;;;;;;;27.90;14.38;;;;;;;5.83;72.23;100076.47;4998249;28;20427;-79
2022/12/04 10:46:59;;;;;;;23.25;12.82;;;;;;;5.86;72.51;100076.03;4995701;28;20422;-78
2022/12/04 10:49:28;;;;;;;28.60;14.68;;;;;;;5.86;72.19;100068.78;4998644;28;20409;-78
2022/12/04 10:51:54;;;;;;;22.87;13.27;;;;;;;5.87;72.29;100069.59;4999659;28;20488;-78
2022/12/04 10:54:25;;;;;;;30.58;14.55;;;;;;;5.88;72.38;100074.78;4997204;28;20505;-78
2022/12/04 10:56:55;;;;;;;29.45;14.82;;;;;;;5.87;72.31;100067.75;4997634;28;20425;-80
2022/12/04 10:59:24;;;;;;;27.17;14.60;;;;;;;5.87;72.54;100069.59;5000440;28;20403;-79
2022/12/04 11:01:57;;;;;;;27.30;14.80;;;;;;;5.84;72.54;100068.16;4996048;28;20466;-80
2022/12/04 11:04:25;;;;;;;27.80;14.40;;;;;;;5.85;72.71;100077.88;4995688;28;20449;-78
2022/12/04 11:07:00;;;;;;;26.83;15.73;;;;;;;5.86;72.46;100066.09;4996218;28;20952;-79
2022/12/04 11:09:25;;;;;;;25.60;14.68;;;;;;;5.88;72.51;100074.78;5000041;28;20427;-79
2022/12/04 11:11:51;;;;;;;24.90;13.70;;;;;;;5.89;72.11;100073.75;4995073;28;20468;-79
2022/12/04 11:14:19;;;;;;;27.15;13.95;;;;;;;5.90;72.15;100078.03;5011574;28;20393;-79
2022/12/04 11:16:48;;;;;;;23.73;12.63;;;;;;;5.90;72.67;100075.34;5014540;28;20399;-79
2022/12/04 11:19:32;;;;;;;22.48;13.20;;;;;;;5.89;72.14;100076.44;5021750;28;20450;-82
2022/12/04 11:22:04;;;;;;;24.38;13.07;;;;;;;5.88;71.92;100072.09;5005695;28;20412;-79
2022/12/04 11:24:34;;;;;;;25.42;13.07;;;;;;;5.89;72.36;100073.75;5030152;28;20410;-78
2022/12/04 11:27:02;;;;;;;23.70;13.82;;;;;;;5.90;72.12;100080.72;5033782;28;20969;-78
2022/12/04 11:29:44;;;;;;;28.50;13.65;;;;;;;5.92;72.34;100084.03;5029358;28;20419;-79
2022/12/04 11:32:38;;;;;;;25.42;13.80;;;;;;;5.89;72.78;100081.81;5032813;28;20441;-78
2022/12/04 11:35:13;;;;;;;24.83;13.55;;;;;;;5.87;72.51;100085.72;5009261;28;20485;-78
2022/12/04 11:37:39;;;;;;;25.67;13.93;;;;;;;5.86;72.91;100095.66;5033881;28;20402;-78
2022/12/04 11:40:13;;;;;;;24.75;13.73;;;;;;;5.88;72.52;100092.78;5031674;28;20799;-79